Time;durP1;ratioP1;P1;durP2;ratioP2;P2;SDS_P1;SDS_P2;PMS_P1;PMS_P2;Temp;Humidity;BMP_temperature;BMP_pressure;BME280_temperature;BME280_humidity;BME280_pressure;Samples;Min_cycle;Max_cycle;Signal;HPM_P1;HPM_P2
2024/04/10 00:01:32;;;;;;;1.13;0.10;;;7.70;99.90;;;;;;5312946;26;20708;-62
2024/04/10 00:03:58;;;;;;;1.90;0.10;;;7.60;99.90;;;;;;5312796;26;20242;-62
2024/04/10 00:06:27;;;;;;;1.43;0.10;;;7.50;99.90;;;;;;5327484;26;20663;-62
2024/04/10 00:08:53;;;;;;;0.10;0.07;;;7.40;99.90;;;;;;5329163;26;20240;-62
2024/04/10 00:11:24;;;;;;;0.70;0.10;;;7.40;99.90;;;;;;5347360;26;20279;-62
2024/04/10 00:13:53;;;;;;;0.60;0.10;;;7.40;99.90;;;;;;5343155;26;20241;-62
2024/04/10 00:16:22;;;;;;;0.10;0.10;;;7.50;99.90;;;;;;5343219;26;20577;-63
2024/04/10 00:18:48;;;;;;;0.03;0.03;;;7.50;99.90;;;;;;5338334;26;20728;-63
2024/04/10 00:21:18;;;;;;;2.03;0.20;;;7.50;99.90;;;;;;5328135;26;20243;-62
2024/04/10 00:23:45;;;;;;;0.97;0.10;;;7.50;99.90;;;;;;5346909;26;20298;-63
2024/04/10 00:26:14;;;;;;;0.20;0.20;;;7.60;99.90;;;;;;5335003;26;20249;-62
2024/04/10 00:28:40;;;;;;;0.10;0.10;;;7.70;99.90;;;;;;5326212;26;20278;-62
2024/04/10 00:31:11;;;;;;;1.40;0.20;;;7.60;99.90;;;;;;5312558;27;20228;-62
2024/04/10 00:33:38;;;;;;;0.10;0.10;;;7.70;99.90;;;;;;5312371;26;20345;-62
2024/04/10 00:36:07;;;;;;;0.10;0.10;;;7.80;99.90;;;;;;5321646;26;20586;-62
2024/04/10 00:38:34;;;;;;;0.57;0.00;;;7.80;99.90;;;;;;5328910;26;20269;-62
2024/04/10 00:41:04;;;;;;;0.10;0.10;;;7.90;99.90;;;;;;5329843;26;20758;-62
2024/04/10 00:43:30;;;;;;;0.00;0.00;;;7.80;99.90;;;;;;5345089;26;20249;-62
2024/04/10 00:46:02;;;;;;;0.00;0.00;;;7.80;99.90;;;;;;5341571;26;20243;-63
2024/04/10 00:48:31;;;;;;;0.10;0.10;;;7.80;99.90;;;;;;5337918;26;20246;-63
2024/04/10 00:51:01;;;;;;;0.53;0.00;;;7.90;99.90;;;;;;5328906;26;20231;-63
2024/04/10 00:53:27;;;;;;;0.20;0.10;;;7.90;99.90;;;;;;5347281;26;20657;-62
2024/04/10 00:55:56;;;;;;;1.23;0.10;;;7.80;99.90;;;;;;5345868;26;20337;-62
2024/04/10 00:58:23;;;;;;;0.10;0.10;;;7.80;99.90;;;;;;5331882;26;20567;-62
2024/04/10 01:00:53;;;;;;;0.10;0.10;;;7.80;99.90;;;;;;5312548;26;20279;-62
2024/04/10 01:03:19;;;;;;;0.40;0.40;;;7.80;99.90;;;;;;5312202;27;20349;-62
2024/04/10 01:06:01;;;;;;;0.10;0.10;;;7.80;99.90;;;;;;5314196;26;20243;-63
2024/04/10 01:08:28;;;;;;;0.10;0.10;;;7.80;99.90;;;;;;5328616;26;20295;-62
2024/04/10 01:10:57;;;;;;;0.33;0.20;;;7.70;99.90;;;;;;5347896;26;20254;-62
2024/04/10 01:13:24;;;;;;;0.10;0.10;;;7.70;99.90;;;;;;5346701;26;20235;-62
2024/04/10 01:15:53;;;;;;;1.13;0.30;;;7.70;99.90;;;;;;5345681;26;20236;-63
2024/04/10 01:18:19;;;;;;;0.27;0.27;;;7.70;99.90;;;;;;5331581;26;20233;-62
2024/04/10 01:20:48;;;;;;;0.30;0.20;;;7.60;99.90;;;;;;5346460;26;20871;-62
2024/04/10 01:23:17;;;;;;;0.10;0.10;;;7.60;99.90;;;;;;5346349;26;20232;-62
2024/04/10 01:25:46;;;;;;;0.20;0.10;;;7.60;99.90;;;;;;5341957;26;20243;-63
2024/04/10 01:28:12;;;;;;;0.10;0.10;;;7.60;99.90;;;;;;5339980;26;20282;-62
2024/04/10 01:30:41;;;;;;;1.40;0.10;;;7.60;99.90;;;;;;5344632;26;20239;-66
2024/04/10 01:33:07;;;;;;;1.40;0.10;;;7.60;99.90;;;;;;5345623;26;20250;-63
2024/04/10 01:35:36;;;;;;;0.20;0.20;;;7.50;99.90;;;;;;5345119;26;20617;-63
2024/04/10 01:38:02;;;;;;;1.70;0.20;;;7.50;99.90;;;;;;5330505;26;20228;-63
2024/04/10 01:40:34;;;;;;;0.20;0.10;;;7.50;99.90;;;;;;5346246;26;20231;-62
2024/04/10 01:43:03;;;;;;;0.10;0.07;;;7.50;99.90;;;;;;5311560;26;20221;-66
2024/04/10 01:45:32;;;;;;;0.10;0.10;;;7.50;99.90;;;;;;5315423;26;20345;-63
2024/04/10 01:47:58;;;;;;;1.80;0.30;;;7.50;99.90;;;;;;5330574;26;20231;-62
2024/04/10 01:50:27;;;;;;;0.00;0.00;;;7.40;99.90;;;;;;5345449;26;20357;-63
2024/04/10 01:52:53;;;;;;;0.00;0.00;;;7.40;99.90;;;;;;5338072;26;20342;-63
2024/04/10 01:55:22;;;;;;;0.10;0.10;;;7.40;99.90;;;;;;5329701;26;20293;-63
2024/04/10 01:57:50;;;;;;;0.20;0.20;;;7.40;99.90;;;;;;5328479;26;20789;-62
2024/04/10 02:00:22;;;;;;;0.93;0.10;;;7.40;99.90;;;;;;5317376;26;20251;-62
2024/04/10 02:02:48;;;;;;;0.20;0.20;;;7.40;99.90;;;;;;5334660;26;20231;-63
2024/04/10 02:05:17;;;;;;;0.10;0.10;;;7.40;99.90;;;;;;5345681;26;20344;-63
2024/04/10 02:07:43;;;;;;;0.10;0.10;;;7.40;99.90;;;;;;5343978;26;20265;-62
2024/04/10 02:10:12;;;;;;;0.23;0.23;;;7.40;99.90;;;;;;5324414;26;20236;-63
2024/04/10 02:12:38;;;;;;;0.17;0.17;;;7.40;99.90;;;;;;5337305;26;20244;-62
2024/04/10 02:15:09;;;;;;;0.40;0.20;;;7.40;99.90;;;;;;5342639;26;20244;-62
2024/04/10 02:17:35;;;;;;;1.27;0.83;;;7.40;99.90;;;;;;5345640;26;20266;-63
2024/04/10 02:20:06;;;;;;;0.53;0.10;;;7.40;99.90;;;;;;5340696;26;20279;-62
2024/04/10 02:22:32;;;;;;;0.30;0.10;;;7.40;99.90;;;;;;5322324;26;20234;-62
2024/04/10 02:25:00;;;;;;;1.10;0.20;;;7.40;99.90;;;;;;5345486;26;20235;-63
2024/04/10 02:27:26;;;;;;;0.20;0.20;;;7.40;99.90;;;;;;5345847;26;20597;-63
2024/04/10 02:29:55;;;;;;;0.53;0.53;;;7.40;99.90;;;;;;5344348;26;20224;-62
2024/04/10 02:32:24;;;;;;;1.07;0.30;;;7.50;99.90;;;;;;5334373;26;20241;-63
2024/04/10 02:34:53;;;;;;;0.40;0.20;;;7.40;99.90;;;;;;5323900;26;20291;-63
2024/04/10 02:37:19;;;;;;;0.10;0.10;;;7.40;99.90;;;;;;5335637;26;20222;-63
2024/04/10 02:39:48;;;;;;;0.63;0.13;;;7.40;99.90;;;;;;5344433;26;20711;-62
2024/04/10 02:42:14;;;;;;;0.13;0.10;;;7.30;99.90;;;;;;5325321;26;20275;-63
2024/04/10 02:44:42;;;;;;;0.20;0.20;;;7.30;99.90;;;;;;5311270;26;20267;-63
2024/04/10 02:47:08;;;;;;;0.17;0.17;;;7.30;99.90;;;;;;5326936;26;20269;-62
2024/04/10 02:49:40;;;;;;;0.30;0.20;;;7.20;99.90;;;;;;5313500;26;20244;-62
2024/04/10 02:52:06;;;;;;;1.13;0.10;;;7.20;99.90;;;;;;5327892;26;20227;-63
2024/04/10 02:54:34;;;;;;;0.80;0.70;;;7.20;99.90;;;;;;5340385;26;20290;-63
2024/04/10 02:57:00;;;;;;;0.47;0.20;;;7.20;99.90;;;;;;5341834;26;20871;-62
2024/04/10 02:59:29;;;;;;;0.33;0.10;;;7.10;99.90;;;;;;5331657;26;20291;-62
2024/04/10 03:01:56;;;;;;;0.10;0.10;;;7.10;99.90;;;;;;5330456;26;20771;-62
2024/04/10 03:04:24;;;;;;;0.30;0.17;;;7.10;99.90;;;;;;5334998;26;20803;-61
2024/04/10 03:06:53;;;;;;;0.67;0.13;;;7.10;99.90;;;;;;5338878;26;20276;-63
2024/04/10 03:09:23;;;;;;;0.20;0.20;;;7.10;99.90;;;;;;5338217;26;20340;-62
2024/04/10 03:11:49;;;;;;;0.17;0.17;;;7.10;99.90;;;;;;5332710;26;20252;-61
2024/04/10 03:14:18;;;;;;;0.40;0.40;;;7.10;99.90;;;;;;5318580;26;20240;-62
2024/04/10 03:16:44;;;;;;;0.20;0.20;;;7.10;99.90;;;;;;5325329;26;20785;-63
2024/04/10 03:19:15;;;;;;;0.20;0.20;;;7.10;99.90;;;;;;5342723;26;20769;-62
2024/04/10 03:21:41;;;;;;;0.27;0.13;;;7.10;99.90;;;;;;5344084;26;20235;-62
2024/04/10 03:24:12;;;;;;;0.20;0.20;;;7.10;99.90;;;;;;5321046;26;20273;-62
2024/04/10 03:26:38;;;;;;;0.17;0.17;;;7.20;99.90;;;;;;5324556;26;20243;-63
2024/04/10 03:29:07;;;;;;;0.30;0.30;;;7.10;99.90;;;;;;5309158;26;20764;-62
2024/04/10 03:31:33;;;;;;;0.77;0.20;;;7.10;99.90;;;;;;5313421;26;20228;-62
2024/04/10 03:34:02;;;;;;;0.10;0.10;;;7.00;99.90;;;;;;5312836;26;20669;-62
2024/04/10 03:36:28;;;;;;;0.20;0.20;;;7.00;99.90;;;;;;5328105;26;20577;-62
2024/04/10 03:38:57;;;;;;;0.20;0.20;;;7.00;99.90;;;;;;5332076;26;20852;-63
2024/04/10 03:41:26;;;;;;;0.67;0.20;;;6.90;99.90;;;;;;5346937;26;20231;-62
2024/04/10 03:43:55;;;;;;;0.57;0.20;;;6.90;99.90;;;;;;5327180;26;20277;-62
2024/04/10 03:46:23;;;;;;;0.20;0.20;;;7.00;99.90;;;;;;5334527;26;20241;-63
2024/04/10 03:48:52;;;;;;;0.60;0.17;;;7.10;99.90;;;;;;5325567;26;20740;-63
2024/04/10 03:51:21;;;;;;;0.50;0.20;;;7.00;99.90;;;;;;5338092;26;20289;-63
2024/04/10 03:53:47;;;;;;;0.33;0.33;;;7.00;99.90;;;;;;5313487;26;20236;-62
2024/04/10 03:56:17;;;;;;;0.40;0.40;;;7.00;99.90;;;;;;5315573;26;20237;-63
2024/04/10 03:58:51;;;;;;;0.20;0.20;;;7.00;99.90;;;;;;5314474;26;20236;-63
2024/04/10 04:01:17;;;;;;;0.20;0.20;;;6.90;99.90;;;;;;5345828;26;20246;-63
2024/04/10 04:03:46;;;;;;;0.97;0.20;;;7.00;99.90;;;;;;5328662;26;20258;-62
2024/04/10 04:06:12;;;;;;;0.10;0.10;;;7.00;99.90;;;;;;5329943;26;20231;-63
2024/04/10 04:08:41;;;;;;;1.47;0.10;;;7.10;99.90;;;;;;5322330;26;20275;-64
2024/04/10 04:11:08;;;;;;;0.87;0.53;;;7.10;99.90;;;;;;5336433;26;20231;-64
2024/04/10 04:13:37;;;;;;;0.20;0.20;;;7.10;99.90;;;;;;5317892;26;20291;-64
2024/04/10 04:16:08;;;;;;;2.00;0.30;;;7.00;99.90;;;;;;5347041;26;20731;-64
2024/04/10 04:18:37;;;;;;;0.30;0.30;;;7.10;99.90;;;;;;5322497;26;20613;-64
2024/04/10 04:21:04;;;;;;;1.03;0.70;;;7.10;99.90;;;;;;5329523;26;20301;-64
2024/04/10 04:23:33;;;;;;;2.63;0.50;;;7.10;99.90;;;;;;5327691;26;20231;-65
2024/04/10 04:25:59;;;;;;;1.87;0.80;;;7.00;99.90;;;;;;5344446;26;20236;-64
2024/04/10 04:28:28;;;;;;;0.47;0.47;;;7.00;99.90;;;;;;5341778;26;20800;-64
2024/04/10 04:30:54;;;;;;;0.70;0.30;;;7.10;99.90;;;;;;5326106;26;20234;-65
2024/04/10 04:33:25;;;;;;;0.40;0.37;;;7.10;99.90;;;;;;5326117;26;20284;-64
2024/04/10 04:35:51;;;;;;;0.37;0.33;;;7.10;99.90;;;;;;5326799;26;20231;-64
2024/04/10 04:38:20;;;;;;;0.27;0.27;;;7.20;99.90;;;;;;5330851;26;20785;-64
2024/04/10 04:40:46;;;;;;;0.40;0.40;;;7.20;99.90;;;;;;5327357;26;20729;-64
2024/04/10 04:43:15;;;;;;;0.20;0.20;;;7.20;99.90;;;;;;5321991;26;20730;-64
2024/04/10 04:45:41;;;;;;;0.40;0.30;;;7.20;99.90;;;;;;5334656;26;20243;-64
2024/04/10 04:48:10;;;;;;;1.87;0.33;;;7.20;99.90;;;;;;5325151;26;20279;-64
2024/04/10 04:50:41;;;;;;;0.30;0.30;;;7.20;99.90;;;;;;5314748;26;20690;-64
2024/04/10 04:53:10;;;;;;;0.30;0.30;;;7.20;99.90;;;;;;5338996;26;20239;-64
2024/04/10 04:55:38;;;;;;;0.73;0.47;;;7.20;99.90;;;;;;5320304;26;20231;-64
2024/04/10 04:58:07;;;;;;;0.83;0.50;;;7.20;99.90;;;;;;5311945;26;20300;-63
2024/04/10 05:00:34;;;;;;;0.77;0.40;;;7.20;99.90;;;;;;5321242;26;20883;-64
2024/04/10 05:03:13;;;;;;;0.27;0.20;;;7.10;99.90;;;;;;5323942;26;20284;-63
2024/04/10 05:05:42;;;;;;;1.20;0.30;;;7.20;99.90;;;;;;5331794;26;20235;-63
2024/04/10 05:08:11;;;;;;;0.60;0.60;;;7.10;99.90;;;;;;5322609;26;20246;-63
2024/04/10 05:10:38;;;;;;;1.30;1.00;;;7.10;99.90;;;;;;5333333;26;20377;-66
2024/04/10 05:13:07;;;;;;;0.50;0.50;;;7.10;99.90;;;;;;5324533;26;20289;-66
2024/04/10 05:15:33;;;;;;;1.27;0.67;;;7.10;99.90;;;;;;5325663;26;20245;-67
2024/04/10 05:18:03;;;;;;;0.50;0.50;;;7.00;99.90;;;;;;5324892;26;20251;-67
2024/04/10 05:20:30;;;;;;;0.40;0.40;;;7.10;99.90;;;;;;5338428;26;20313;-65
2024/04/10 05:23:05;;;;;;;0.30;0.30;;;7.00;99.90;;;;;;5329681;26;20277;-66
2024/04/10 05:25:31;;;;;;;1.07;0.50;;;6.90;99.90;;;;;;5330185;26;20239;-64
2024/04/10 05:28:03;;;;;;;2.30;0.43;;;6.90;99.90;;;;;;5325588;26;20243;-63
2024/04/10 05:30:29;;;;;;;0.43;0.30;;;6.90;99.90;;;;;;5329971;26;20234;-63
2024/04/10 05:33:02;;;;;;;0.47;0.47;;;6.90;99.90;;;;;;5323073;26;20631;-63
2024/04/10 05:35:28;;;;;;;1.87;0.67;;;7.00;99.90;;;;;;5329304;26;20882;-64
2024/04/10 05:38:04;;;;;;;0.70;0.70;;;6.90;99.90;;;;;;5326254;26;20243;-63
2024/04/10 05:40:30;;;;;;;0.70;0.70;;;7.00;99.90;;;;;;5327934;26;20344;-66
2024/04/10 05:43:01;;;;;;;0.70;0.70;;;7.00;99.90;;;;;;5307130;26;20236;-63
2024/04/10 05:45:27;;;;;;;1.80;1.00;;;7.00;99.90;;;;;;5302670;26;20247;-63
2024/04/10 05:47:56;;;;;;;1.83;0.40;;;7.00;99.90;;;;;;5315730;26;20233;-63
2024/04/10 05:50:22;;;;;;;0.50;0.50;;;6.90;99.90;;;;;;5310390;26;20238;-63
2024/04/10 05:52:51;;;;;;;0.90;0.40;;;6.90;99.90;;;;;;5324884;26;20278;-63
2024/04/10 05:55:19;;;;;;;0.90;0.70;;;7.00;99.90;;;;;;5324955;26;20244;-64
2024/04/10 05:57:50;;;;;;;0.93;0.93;;;7.00;99.90;;;;;;5320693;26;20276;-65
2024/04/10 06:00:17;;;;;;;1.83;1.77;;;7.00;99.90;;;;;;5330205;26;20240;-65
2024/04/10 06:02:48;;;;;;;0.93;0.93;;;7.00;99.90;;;;;;5323623;26;20397;-63
2024/04/10 06:05:14;;;;;;;2.40;0.50;;;7.10;99.90;;;;;;5328938;26;20355;-65
2024/04/10 06:07:44;;;;;;;1.73;0.73;;;7.00;99.90;;;;;;5327186;26;20341;-66
2024/04/10 06:10:11;;;;;;;0.70;0.53;;;7.00;99.90;;;;;;5325287;26;20236;-66
2024/04/10 06:12:42;;;;;;;0.60;0.50;;;6.80;99.90;;;;;;5334419;26;20666;-66
2024/04/10 06:15:09;;;;;;;0.80;0.20;;;6.80;99.90;;;;;;5323011;26;20801;-67
2024/04/10 06:17:37;;;;;;;0.20;0.20;;;6.80;99.90;;;;;;5320605;26;20749;-62
2024/04/10 06:20:05;;;;;;;0.40;0.40;;;6.80;99.90;;;;;;5321458;26;20609;-64
2024/04/10 06:22:33;;;;;;;1.23;0.50;;;6.90;99.90;;;;;;5323071;26;20754;-65
2024/04/10 06:24:59;;;;;;;1.27;0.80;;;6.90;99.90;;;;;;5330377;26;20292;-65
2024/04/10 06:27:28;;;;;;;0.60;0.60;;;6.90;99.90;;;;;;5328706;26;20321;-66
2024/04/10 06:29:57;;;;;;;1.67;0.60;;;6.90;99.90;;;;;;5327306;26;20289;-62
2024/04/10 06:32:25;;;;;;;1.20;1.20;;;7.00;99.90;;;;;;5329269;26;20293;-62
2024/04/10 06:34:51;;;;;;;2.00;0.90;;;7.10;99.90;;;;;;5322602;26;20258;-61
2024/04/10 06:37:20;;;;;;;0.37;0.30;;;7.00;99.90;;;;;;5333280;26;20240;-60
2024/04/10 06:39:46;;;;;;;0.40;0.27;;;6.90;99.90;;;;;;5326948;26;20239;-61
2024/04/10 06:42:15;;;;;;;0.77;0.17;;;7.00;99.90;;;;;;5325356;26;20241;-61
2024/04/10 06:44:41;;;;;;;0.50;0.20;;;7.00;99.90;;;;;;5323485;26;20323;-61
2024/04/10 06:47:13;;;;;;;0.30;0.30;;;7.00;99.90;;;;;;5337717;26;20246;-61
2024/04/10 06:49:39;;;;;;;1.43;0.20;;;7.10;99.90;;;;;;5328710;26;20861;-60
2024/04/10 06:52:07;;;;;;;0.97;0.30;;;7.00;99.90;;;;;;5321763;26;20239;-63
2024/04/10 06:54:33;;;;;;;2.00;0.23;;;7.00;99.90;;;;;;5332997;26;20599;-67
2024/04/10 06:57:02;;;;;;;0.37;0.20;;;7.00;99.90;;;;;;5333268;26;20239;-65
2024/04/10 06:59:28;;;;;;;0.27;0.20;;;6.90;99.90;;;;;;5324965;26;20277;-64
2024/04/10 07:01:57;;;;;;;0.20;0.20;;;6.90;99.90;;;;;;5324085;26;20234;-65
2024/04/10 07:04:25;;;;;;;0.20;0.20;;;6.90;99.90;;;;;;5323437;26;20247;-64
2024/04/10 07:06:54;;;;;;;0.20;0.00;;;6.90;99.90;;;;;;5327997;26;20243;-63
2024/04/10 07:09:20;;;;;;;2.17;0.23;;;6.90;99.90;;;;;;5325103;26;20238;-63
2024/04/10 07:11:50;;;;;;;0.20;0.20;;;6.90;99.90;;;;;;5325855;26;20356;-63
2024/04/10 07:14:16;;;;;;;0.30;0.20;;;7.00;99.90;;;;;;5336150;26;20595;-64
2024/04/10 07:16:45;;;;;;;1.47;0.43;;;7.00;99.90;;;;;;5336605;26;20225;-64
2024/04/10 07:19:10;;;;;;;0.20;0.20;;;7.00;99.90;;;;;;5327520;26;20239;-65
2024/04/10 07:21:42;;;;;;;0.10;0.10;;;7.00;99.90;;;;;;5329808;26;20282;-66
2024/04/10 07:24:11;;;;;;;0.10;0.10;;;7.10;99.90;;;;;;5330743;26;20344;-65
2024/04/10 07:26:37;;;;;;;0.10;0.10;;;7.10;99.90;;;;;;5321993;26;20235;-66
2024/04/10 07:29:06;;;;;;;0.33;0.10;;;7.20;99.90;;;;;;5323781;26;20689;-64
2024/04/10 07:31:32;;;;;;;0.23;0.07;;;7.00;99.90;;;;;;5326208;26;20617;-65
2024/04/10 07:34:02;;;;;;;0.27;0.20;;;7.10;99.90;;;;;;5327071;26;20243;-63
2024/04/10 07:36:28;;;;;;;0.27;0.20;;;7.20;99.90;;;;;;5325815;26;20303;-62
2024/04/10 07:39:01;;;;;;;0.20;0.20;;;7.20;99.90;;;;;;5324596;26;20749;-62
2024/04/10 07:41:27;;;;;;;0.23;0.23;;;7.30;99.90;;;;;;5323237;26;20236;-63
2024/04/10 07:43:59;;;;;;;0.30;0.30;;;7.40;99.90;;;;;;5316302;26;21226;-67
2024/04/10 07:46:25;;;;;;;0.33;0.30;;;7.50;99.90;;;;;;5329476;26;20233;-66
2024/04/10 07:48:57;;;;;;;0.40;0.40;;;7.50;99.90;;;;;;5327759;26;20243;-68
2024/04/10 07:51:24;;;;;;;0.63;0.43;;;7.60;99.90;;;;;;5325157;26;20236;-68
2024/04/10 07:53:53;;;;;;;0.20;0.10;;;7.80;99.90;;;;;;5337746;26;20248;-66
2024/04/10 07:56:22;;;;;;;0.10;0.10;;;7.80;99.90;;;;;;5327711;26;20980;-65
2024/04/10 07:58:51;;;;;;;1.40;0.37;;;7.80;99.90;;;;;;5324970;26;20744;-65
2024/04/10 08:01:17;;;;;;;0.97;0.80;;;7.80;99.90;;;;;;5324627;26;20275;-65
2024/04/10 08:03:47;;;;;;;0.60;0.60;;;7.90;99.90;;;;;;5324918;26;20268;-66
2024/04/10 08:06:14;;;;;;;0.90;0.67;;;8.00;99.90;;;;;;5323832;26;20234;-65
2024/04/10 08:08:42;;;;;;;1.17;0.57;;;8.10;99.90;;;;;;5330723;26;20928;-65
2024/04/10 08:11:12;;;;;;;0.50;0.50;;;8.20;99.90;;;;;;5329200;26;20274;-66
2024/04/10 08:13:43;;;;;;;0.40;0.40;;;8.10;99.90;;;;;;5326336;26;20360;-63
2024/04/10 08:16:11;;;;;;;0.30;0.30;;;8.00;99.90;;;;;;5331904;26;20771;-61
2024/04/10 08:18:41;;;;;;;0.50;0.50;;;8.00;99.90;;;;;;5333733;26;20231;-65
2024/04/10 08:21:09;;;;;;;0.63;0.60;;;8.10;99.90;;;;;;5327877;26;20306;-62
2024/04/10 08:23:39;;;;;;;0.30;0.30;;;8.20;99.90;;;;;;5333953;26;20755;-61
2024/04/10 08:26:12;;;;;;;1.70;0.30;;;8.20;99.90;;;;;;5334293;26;20234;-62
2024/04/10 08:28:48;;;;;;;0.10;0.10;;;8.20;99.90;;;;;;5324190;26;20285;-63
2024/04/10 08:31:15;;;;;;;0.83;0.30;;;8.20;99.90;;;;;;5327357;26;20843;-61
2024/04/10 08:33:44;;;;;;;0.20;0.20;;;8.20;99.90;;;;;;5337195;26;20259;-62
2024/04/10 08:36:12;;;;;;;1.27;0.20;;;8.20;99.90;;;;;;5333249;26;21032;-63
2024/04/10 08:38:41;;;;;;;0.57;0.33;;;8.30;99.90;;;;;;5328472;26;20243;-62
2024/04/10 08:41:12;;;;;;;0.30;0.30;;;8.30;99.90;;;;;;5340913;26;20233;-62
2024/04/10 08:43:45;;;;;;;0.30;0.30;;;8.40;99.90;;;;;;5328140;26;20296;-62
2024/04/10 08:46:12;;;;;;;0.40;0.40;;;8.40;99.90;;;;;;5331388;26;20233;-63
2024/04/10 08:48:42;;;;;;;1.13;0.47;;;8.50;99.90;;;;;;5332165;26;20239;-62
2024/04/10 08:51:11;;;;;;;3.13;0.40;;;8.60;99.90;;;;;;5317376;26;20347;-61
2024/04/10 08:53:42;;;;;;;0.40;0.33;;;8.70;99.90;;;;;;5336030;26;20259;-63
2024/04/10 08:56:08;;;;;;;0.40;0.40;;;8.80;99.90;;;;;;5339072;26;20588;-61
2024/04/10 08:58:37;;;;;;;0.50;0.40;;;8.90;99.90;;;;;;5322032;26;20239;-62
2024/04/10 09:01:06;;;;;;;1.45;0.50;;;8.80;99.90;;;;;;5327106;26;20417;-65
2024/04/10 09:03:36;;;;;;;0.30;0.30;;;9.10;99.90;;;;;;5330875;26;20763;-65
2024/04/10 09:06:07;;;;;;;0.90;0.37;;;9.00;99.90;;;;;;5326121;26;20228;-66
2024/04/10 09:08:36;;;;;;;0.57;0.37;;;9.00;99.90;;;;;;5310597;26;20240;-66
2024/04/10 09:11:02;;;;;;;1.80;0.40;;;9.10;99.90;;;;;;5312888;26;20565;-65
2024/04/10 09:13:31;;;;;;;1.03;0.40;;;9.20;99.90;;;;;;5325235;26;20731;-64
2024/04/10 09:15:58;;;;;;;0.30;0.30;;;9.00;99.90;;;;;;5345829;26;20235;-65
2024/04/10 09:18:30;;;;;;;1.80;0.40;;;9.20;99.90;;;;;;5332936;26;20745;-65
2024/04/10 09:21:08;;;;;;;0.43;0.40;;;9.30;99.90;;;;;;5315564;26;20275;-66
2024/04/10 09:23:37;;;;;;;0.43;0.40;;;9.60;99.90;;;;;;5318876;26;20350;-65
2024/04/10 09:26:03;;;;;;;0.40;0.40;;;10.00;99.90;;;;;;5315836;26;20264;-64
2024/04/10 09:28:33;;;;;;;0.67;0.50;;;10.40;99.90;;;;;;5330075;26;20236;-65
2024/04/10 09:30:59;;;;;;;0.50;0.50;;;10.80;99.90;;;;;;5311513;26;20233;-65
2024/04/10 09:33:35;;;;;;;0.60;0.50;;;11.00;99.90;;;;;;5335320;26;20326;-65
2024/04/10 09:36:03;;;;;;;0.60;0.60;;;11.00;99.90;;;;;;5346108;26;20228;-61
2024/04/10 09:38:34;;;;;;;1.90;0.50;;;11.10;99.90;;;;;;5345248;26;20797;-70
2024/04/10 09:41:02;;;;;;;3.83;0.30;;;11.10;99.90;;;;;;5345903;26;20735;-69
2024/04/10 09:43:32;;;;;;;1.30;0.50;;;11.10;99.90;;;;;;5330612;26;20235;-63
2024/04/10 09:45:59;;;;;;;1.37;0.47;;;11.30;99.90;;;;;;5345601;26;20277;-63
2024/04/10 09:48:33;;;;;;;1.90;0.60;;;11.40;99.90;;;;;;5332140;26;20233;-63
2024/04/10 09:51:04;;;;;;;1.67;0.50;;;11.60;99.90;;;;;;5311273;26;20272;-63
2024/04/10 09:53:35;;;;;;;2.40;0.60;;;11.70;99.90;;;;;;5324889;26;20591;-63
2024/04/10 09:56:02;;;;;;;0.87;0.40;;;11.80;99.90;;;;;;5345626;26;20305;-65
2024/04/10 09:58:34;;;;;;;1.80;0.50;;;11.90;99.90;;;;;;5344748;26;20317;-63
2024/04/10 10:01:01;;;;;;;2.10;0.30;;;12.30;99.90;;;;;;5327910;26;20229;-63
2024/04/10 10:03:32;;;;;;;1.03;0.30;;;12.60;99.90;;;;;;5326777;26;20278;-64
2024/04/10 10:06:03;;;;;;;2.17;0.60;;;12.80;99.90;;;;;;5326204;26;20612;-66
2024/04/10 10:08:32;;;;;;;0.57;0.40;;;12.80;99.90;;;;;;5309787;26;20240;-65
2024/04/10 10:10:58;;;;;;;2.10;0.40;;;13.30;99.90;;;;;;5327240;26;20284;-67
2024/04/10 10:13:30;;;;;;;2.20;0.33;;;13.50;99.90;;;;;;5338655;26;20234;-64
2024/04/10 10:15:57;;;;;;;3.53;0.47;;;13.80;99.90;;;;;;5344661;26;20228;-65
2024/04/10 10:18:27;;;;;;;1.80;0.43;;;14.40;99.90;;;;;;5318496;26;20237;-63
2024/04/10 10:21:07;;;;;;;1.10;1.10;;;14.80;99.90;;;;;;5310300;26;20580;-67
2024/04/10 10:23:35;;;;;;;3.03;0.30;;;14.70;99.90;;;;;;5310376;26;20249;-67
2024/04/10 10:26:02;;;;;;;2.10;0.33;;;14.50;99.90;;;;;;5331335;26;20278;-63
2024/04/10 10:28:31;;;;;;;0.97;0.40;;;15.10;99.90;;;;;;5337896;26;20284;-64
2024/04/10 10:31:08;;;;;;;1.80;0.93;;;15.70;99.90;;;;;;5322868;26;20675;-63
2024/04/10 10:33:38;;;;;;;1.57;0.53;;;15.00;99.90;;;;;;5307240;26;20296;-63
2024/04/10 10:36:07;;;;;;;0.40;0.40;;;14.10;99.90;;;;;;5331487;26;20241;-63
2024/04/10 10:38:35;;;;;;;2.40;0.40;;;13.90;99.90;;;;;;5311508;26;20726;-63
2024/04/10 10:41:06;;;;;;;0.97;0.40;;;13.90;99.90;;;;;;5325111;26;20240;-63
2024/04/10 10:43:35;;;;;;;0.30;0.30;;;13.60;99.90;;;;;;5344758;26;20284;-64
2024/04/10 10:46:02;;;;;;;1.50;0.50;;;13.70;99.90;;;;;;5343594;26;20235;-63
2024/04/10 10:48:31;;;;;;;0.87;0.40;;;14.30;99.90;;;;;;5336885;26;20276;-64
2024/04/10 10:50:58;;;;;;;3.53;0.43;;;15.00;99.90;;;;;;5336832;26;20227;-63
2024/04/10 10:53:29;;;;;;;0.63;0.53;;;15.40;99.90;;;;;;5344550;26;20237;-69
2024/04/10 10:55:57;;;;;;;0.87;0.40;;;15.80;99.90;;;;;;5344437;26;20269;-64
2024/04/10 10:58:26;;;;;;;2.23;0.30;;;15.60;99.90;;;;;;5343566;26;20230;-64
2024/04/10 11:02:46;;;;;;;4.20;0.40;;;15.10;99.90;;;;;;5542760;25;20893;-64
2024/04/10 11:05:13;;;;;;;0.60;0.20;;;14.90;99.90;;;;;;5536179;25;20274;-65
2024/04/10 11:07:42;;;;;;;1.23;0.30;;;15.20;99.90;;;;;;5495344;25;20279;-65
2024/04/10 11:10:11;;;;;;;0.73;0.50;;;15.40;99.90;;;;;;5506318;25;20357;-70
2024/04/10 11:12:39;;;;;;;0.80;0.50;;;15.30;99.90;;;;;;5494921;25;20304;-69
2024/04/10 11:15:08;;;;;;;2.90;0.40;;;14.80;99.90;;;;;;5527024;25;20233;-69
2024/04/10 11:17:37;;;;;;;2.37;0.50;;;14.60;99.90;;;;;;5506196;25;20731;-71
2024/04/10 11:20:10;;;;;;;0.93;0.40;;;14.50;99.90;;;;;;5502059;26;20224;-71
2024/04/10 11:22:39;;;;;;;1.40;0.30;;;14.50;99.90;;;;;;5505488;25;20237;-66
2024/04/10 11:25:05;;;;;;;0.57;0.20;;;14.30;99.90;;;;;;5500405;25;20224;-70
2024/04/10 11:27:34;;;;;;;2.23;0.87;;;14.00;99.90;;;;;;5498708;26;20217;-66
2024/04/10 11:30:03;;;;;;;6.47;1.83;;;13.80;99.90;;;;;;5488202;25;20239;-63
2024/04/10 11:32:29;;;;;;;1.47;0.67;;;13.50;99.90;;;;;;5505365;25;20224;-63
2024/04/10 11:34:58;;;;;;;0.87;0.87;;;13.60;99.90;;;;;;5505928;25;20238;-63
2024/04/10 11:37:27;;;;;;;1.83;0.30;;;13.50;99.90;;;;;;5505909;25;20825;-62
2024/04/10 11:39:56;;;;;;;1.03;0.30;;;13.40;99.90;;;;;;5524320;25;20360;-64
2024/04/10 11:42:22;;;;;;;0.50;0.40;;;13.30;99.90;;;;;;5523558;25;20225;-64
2024/04/10 11:44:50;;;;;;;2.03;0.90;;;12.90;99.90;;;;;;5521278;25;20264;-63
2024/04/10 11:47:16;;;;;;;1.97;0.30;;;13.20;99.90;;;;;;5542767;25;20280;-63
2024/04/10 11:49:45;;;;;;;3.40;0.40;;;13.00;99.90;;;;;;5509364;25;20235;-65
2024/04/10 11:52:11;;;;;;;1.13;0.50;;;13.10;99.90;;;;;;5504064;25;20269;-70
2024/04/10 11:54:43;;;;;;;0.40;0.40;;;13.10;99.90;;;;;;5505626;25;20287;-63
2024/04/10 11:57:27;;;;;;;0.60;0.30;;;13.30;99.90;;;;;;5505900;25;20264;-63
2024/04/10 11:59:56;;;;;;;0.83;0.43;;;13.50;99.90;;;;;;5504571;25;20299;-62
2024/04/10 12:02:22;;;;;;;0.60;0.47;;;13.60;99.90;;;;;;5505802;25;20229;-63
2024/04/10 12:04:52;;;;;;;2.43;0.40;;;13.90;99.90;;;;;;5539948;25;20236;-62
2024/04/10 12:07:18;;;;;;;2.13;0.30;;;14.00;99.90;;;;;;5542476;25;20253;-63
2024/04/10 12:09:50;;;;;;;1.13;0.37;;;14.10;99.90;;;;;;5504954;25;20279;-63
2024/04/10 12:12:17;;;;;;;1.10;0.20;;;14.20;99.90;;;;;;5475371;26;20271;-62
2024/04/10 12:14:45;;;;;;;7.50;0.50;;;14.20;99.90;;;;;;5483033;26;20233;-63
2024/04/10 12:17:12;;;;;;;1.07;0.50;;;14.30;99.90;;;;;;5476518;26;20273;-62
2024/04/10 12:19:40;;;;;;;1.07;0.50;;;14.20;99.90;;;;;;5487614;26;20334;-62
2024/04/10 12:22:08;;;;;;;1.70;0.70;;;14.10;99.90;;;;;;5490905;26;20270;-62
2024/04/10 12:24:37;;;;;;;1.60;0.40;;;13.80;99.90;;;;;;5491561;26;20249;-64
2024/04/10 12:27:06;;;;;;;0.30;0.30;;;13.70;99.90;;;;;;5477031;26;20490;-65
2024/04/10 12:29:36;;;;;;;2.30;0.37;;;13.60;99.90;;;;;;5502539;26;20266;-63
2024/04/10 12:32:02;;;;;;;0.30;0.30;;;13.60;99.90;;;;;;5471629;26;20232;-61
2024/04/10 12:34:30;;;;;;;0.60;0.33;;;13.60;99.90;;;;;;5485830;26;20287;-62
2024/04/10 12:39:43;;;;;;;1.77;0.70;;;13.80;99.90;;;;;;5482901;26;20330;-64
2024/04/10 12:42:15;;;;;;;3.23;0.40;;;14.10;99.90;;;;;;5489167;26;20250;-67
2024/04/10 12:44:44;;;;;;;0.30;0.30;;;14.20;99.90;;;;;;5484603;26;20238;-66
2024/04/10 12:47:11;;;;;;;0.40;0.40;;;14.50;99.90;;;;;;5488981;26;20241;-64
2024/04/10 12:49:39;;;;;;;0.50;0.50;;;14.80;99.90;;;;;;5487834;26;20255;-65
2024/04/10 12:52:06;;;;;;;0.53;0.40;;;14.50;99.90;;;;;;5489611;26;20213;-65
2024/04/10 12:54:35;;;;;;;1.03;0.43;;;14.40;99.90;;;;;;5487381;26;20635;-64
2024/04/10 12:57:02;;;;;;;2.10;0.30;;;14.10;99.90;;;;;;5480985;26;20229;-68
2024/04/10 12:59:33;;;;;;;1.80;0.53;;;13.80;99.90;;;;;;5488574;26;20653;-66
2024/04/10 13:02:00;;;;;;;1.33;0.50;;;13.50;99.90;;;;;;5485025;26;20234;-66
2024/04/10 13:04:28;;;;;;;4.60;0.53;;;13.50;99.90;;;;;;5486367;26;20305;-64
2024/04/10 13:06:54;;;;;;;1.17;0.83;;;13.30;99.90;;;;;;5487814;26;20231;-65